sensor_id;sensor_type;location;lat;lon;timestamp;P1;durP1;ratioP1;P2;durP2;ratioP2
66523;SDS011;53350;52.210;5.160;2023-08-01T00:02:21;9.25;;;3.03;;
66523;SDS011;53350;52.210;5.160;2023-08-01T00:04:47;12.30;;;2.92;;
66523;SDS011;53350;52.210;5.160;2023-08-01T00:07:14;11.05;;;2.92;;
66523;SDS011;53350;52.210;5.160;2023-08-01T00:09:40;12.10;;;3.40;;
66523;SDS011;53350;52.210;5.160;2023-08-01T00:12:06;10.30;;;2.83;;
66523;SDS011;53350;52.210;5.160;2023-08-01T00:14:33;9.50;;;2.95;;
66523;SDS011;53350;52.210;5.160;2023-08-01T00:17:00;14.52;;;3.50;;
66523;SDS011;53350;52.210;5.160;2023-08-01T00:19:27;13.32;;;3.42;;
66523;SDS011;53350;52.210;5.160;2023-08-01T00:21:53;10.23;;;3.33;;
66523;SDS011;53350;52.210;5.160;2023-08-01T00:24:19;10.20;;;2.95;;
66523;SDS011;53350;52.210;5.160;2023-08-01T00:26:46;11.50;;;3.45;;
66523;SDS011;53350;52.210;5.160;2023-08-01T00:29:12;10.27;;;2.92;;
66523;SDS011;53350;52.210;5.160;2023-08-01T00:31:39;9.57;;;2.90;;
66523;SDS011;53350;52.210;5.160;2023-08-01T00:34:06;11.45;;;3.13;;
66523;SDS011;53350;52.210;5.160;2023-08-01T00:36:33;10.45;;;3.13;;
66523;SDS011;53350;52.210;5.160;2023-08-01T00:38:59;9.88;;;2.90;;
66523;SDS011;53350;52.210;5.160;2023-08-01T00:41:26;13.75;;;3.03;;
66523;SDS011;53350;52.210;5.160;2023-08-01T00:43:52;15.63;;;2.95;;
66523;SDS011;53350;52.210;5.160;2023-08-01T00:46:18;9.80;;;2.90;;
66523;SDS011;53350;52.210;5.160;2023-08-01T00:48:45;9.40;;;3.13;;
66523;SDS011;53350;52.210;5.160;2023-08-01T00:51:13;10.25;;;3.28;;
66523;SDS011;53350;52.210;5.160;2023-08-01T00:53:39;9.32;;;3.00;;
66523;SDS011;53350;52.210;5.160;2023-08-01T00:56:06;10.70;;;3.30;;
66523;SDS011;53350;52.210;5.160;2023-08-01T00:58:32;11.77;;;3.10;;
66523;SDS011;53350;52.210;5.160;2023-08-01T01:00:59;17.15;;;3.50;;
66523;SDS011;53350;52.210;5.160;2023-08-01T01:03:25;13.80;;;3.35;;
66523;SDS011;53350;52.210;5.160;2023-08-01T01:05:53;13.50;;;3.33;;
66523;SDS011;53350;52.210;5.160;2023-08-01T01:08:21;12.38;;;3.50;;
66523;SDS011;53350;52.210;5.160;2023-08-01T01:10:47;14.85;;;3.25;;
66523;SDS011;53350;52.210;5.160;2023-08-01T01:13:14;12.20;;;3.40;;
66523;SDS011;53350;52.210;5.160;2023-08-01T01:15:40;10.25;;;3.22;;
66523;SDS011;53350;52.210;5.160;2023-08-01T01:18:06;12.95;;;3.35;;
66523;SDS011;53350;52.210;5.160;2023-08-01T01:20:34;10.63;;;4.10;;
66523;SDS011;53350;52.210;5.160;2023-08-01T01:23:01;12.68;;;3.60;;
66523;SDS011;53350;52.210;5.160;2023-08-01T01:25:29;9.20;;;3.05;;
66523;SDS011;53350;52.210;5.160;2023-08-01T01:27:56;14.38;;;3.42;;
66523;SDS011;53350;52.210;5.160;2023-08-01T01:30:22;12.73;;;3.75;;
66523;SDS011;53350;52.210;5.160;2023-08-01T01:32:49;12.63;;;3.83;;
66523;SDS011;53350;52.210;5.160;2023-08-01T01:35:16;16.75;;;4.18;;
66523;SDS011;53350;52.210;5.160;2023-08-01T01:37:43;17.38;;;3.78;;
66523;SDS011;53350;52.210;5.160;2023-08-01T01:40:10;11.88;;;3.53;;
66523;SDS011;53350;52.210;5.160;2023-08-01T01:42:36;11.73;;;3.45;;
66523;SDS011;53350;52.210;5.160;2023-08-01T01:45:03;12.07;;;3.65;;
66523;SDS011;53350;52.210;5.160;2023-08-01T01:47:29;14.55;;;3.95;;
66523;SDS011;53350;52.210;5.160;2023-08-01T01:49:56;11.68;;;3.33;;
66523;SDS011;53350;52.210;5.160;2023-08-01T01:52:22;12.55;;;3.72;;
66523;SDS011;53350;52.210;5.160;2023-08-01T01:54:49;16.63;;;4.25;;
66523;SDS011;53350;52.210;5.160;2023-08-01T01:57:16;13.68;;;4.50;;
66523;SDS011;53350;52.210;5.160;2023-08-01T01:59:42;15.63;;;4.35;;
66523;SDS011;53350;52.210;5.160;2023-08-01T02:02:08;12.15;;;3.85;;
66523;SDS011;53350;52.210;5.160;2023-08-01T02:04:34;10.80;;;3.85;;
66523;SDS011;53350;52.210;5.160;2023-08-01T02:07:01;16.35;;;3.53;;
66523;SDS011;53350;52.210;5.160;2023-08-01T02:09:28;15.70;;;4.00;;
66523;SDS011;53350;52.210;5.160;2023-08-01T02:11:55;12.50;;;3.63;;
66523;SDS011;53350;52.210;5.160;2023-08-01T02:14:22;13.98;;;4.18;;
66523;SDS011;53350;52.210;5.160;2023-08-01T02:16:48;13.45;;;4.07;;
66523;SDS011;53350;52.210;5.160;2023-08-01T02:19:14;10.20;;;3.85;;
66523;SDS011;53350;52.210;5.160;2023-08-01T02:21:41;12.20;;;3.70;;
66523;SDS011;53350;52.210;5.160;2023-08-01T02:24:07;12.27;;;3.60;;
66523;SDS011;53350;52.210;5.160;2023-08-01T02:26:33;13.82;;;3.67;;
66523;SDS011;53350;52.210;5.160;2023-08-01T02:29:01;14.73;;;4.32;;
66523;SDS011;53350;52.210;5.160;2023-08-01T02:31:27;9.18;;;3.70;;
66523;SDS011;53350;52.210;5.160;2023-08-01T02:33:53;11.23;;;3.80;;
66523;SDS011;53350;52.210;5.160;2023-08-01T02:36:20;15.32;;;3.50;;
66523;SDS011;53350;52.210;5.160;2023-08-01T02:38:46;8.88;;;3.33;;
66523;SDS011;53350;52.210;5.160;2023-08-01T02:41:12;8.32;;;3.08;;
66523;SDS011;53350;52.210;5.160;2023-08-01T02:43:39;10.50;;;3.10;;
66523;SDS011;53350;52.210;5.160;2023-08-01T02:46:07;9.50;;;2.97;;
66523;SDS011;53350;52.210;5.160;2023-08-01T02:48:34;8.13;;;2.90;;
66523;SDS011;53350;52.210;5.160;2023-08-01T02:51:00;13.00;;;3.55;;
66523;SDS011;53350;52.210;5.160;2023-08-01T02:53:26;11.98;;;2.53;;
66523;SDS011;53350;52.210;5.160;2023-08-01T02:55:53;9.52;;;2.65;;
66523;SDS011;53350;52.210;5.160;2023-08-01T02:58:19;7.82;;;2.60;;
66523;SDS011;53350;52.210;5.160;2023-08-01T03:00:45;10.98;;;3.17;;
66523;SDS011;53350;52.210;5.160;2023-08-01T03:03:14;9.65;;;3.28;;
66523;SDS011;53350;52.210;5.160;2023-08-01T03:05:40;8.95;;;2.85;;
66523;SDS011;53350;52.210;5.160;2023-08-01T03:08:07;13.85;;;3.80;;
66523;SDS011;53350;52.210;5.160;2023-08-01T03:10:33;10.70;;;3.45;;
66523;SDS011;53350;52.210;5.160;2023-08-01T03:13:00;12.50;;;3.10;;
66523;SDS011;53350;52.210;5.160;2023-08-01T03:15:26;13.00;;;3.13;;
66523;SDS011;53350;52.210;5.160;2023-08-01T03:17:52;12.63;;;3.38;;
66523;SDS011;53350;52.210;5.160;2023-08-01T03:20:20;12.23;;;3.03;;
66523;SDS011;53350;52.210;5.160;2023-08-01T03:22:47;8.48;;;3.40;;
66523;SDS011;53350;52.210;5.160;2023-08-01T03:25:14;12.05;;;3.60;;
66523;SDS011;53350;52.210;5.160;2023-08-01T03:27:40;10.27;;;3.33;;
66523;SDS011;53350;52.210;5.160;2023-08-01T03:30:07;11.38;;;3.50;;
66523;SDS011;53350;52.210;5.160;2023-08-01T03:32:33;12.35;;;3.65;;
66523;SDS011;53350;52.210;5.160;2023-08-01T03:35:00;14.18;;;3.85;;
66523;SDS011;53350;52.210;5.160;2023-08-01T03:37:27;13.93;;;3.72;;
66523;SDS011;53350;52.210;5.160;2023-08-01T03:39:54;10.88;;;3.75;;
66523;SDS011;53350;52.210;5.160;2023-08-01T03:42:20;13.05;;;3.80;;
66523;SDS011;53350;52.210;5.160;2023-08-01T03:44:46;10.75;;;3.42;;
66523;SDS011;53350;52.210;5.160;2023-08-01T03:47:12;10.75;;;3.83;;
66523;SDS011;53350;52.210;5.160;2023-08-01T03:49:39;11.25;;;4.00;;
66523;SDS011;53350;52.210;5.160;2023-08-01T03:52:06;12.05;;;4.40;;
66523;SDS011;53350;52.210;5.160;2023-08-01T03:54:34;15.05;;;4.32;;
66523;SDS011;53350;52.210;5.160;2023-08-01T03:57:01;11.35;;;3.70;;
66523;SDS011;53350;52.210;5.160;2023-08-01T03:59:27;13.40;;;4.40;;
66523;SDS011;53350;52.210;5.160;2023-08-01T04:01:53;15.00;;;4.18;;
66523;SDS011;53350;52.210;5.160;2023-08-01T04:04:20;13.18;;;4.07;;
66523;SDS011;53350;52.210;5.160;2023-08-01T04:06:46;19.60;;;4.88;;
66523;SDS011;53350;52.210;5.160;2023-08-01T04:09:12;13.35;;;4.57;;
66523;SDS011;53350;52.210;5.160;2023-08-01T04:11:40;16.58;;;4.47;;
66523;SDS011;53350;52.210;5.160;2023-08-01T04:14:06;13.63;;;5.07;;
66523;SDS011;53350;52.210;5.160;2023-08-01T04:16:33;15.93;;;4.75;;
66523;SDS011;53350;52.210;5.160;2023-08-01T04:18:59;19.98;;;5.55;;
66523;SDS011;53350;52.210;5.160;2023-08-01T04:21:26;19.10;;;5.60;;
66523;SDS011;53350;52.210;5.160;2023-08-01T04:23:52;23.52;;;5.68;;
66523;SDS011;53350;52.210;5.160;2023-08-01T04:26:18;15.70;;;4.85;;
66523;SDS011;53350;52.210;5.160;2023-08-01T04:28:46;19.30;;;5.40;;
66523;SDS011;53350;52.210;5.160;2023-08-01T04:31:13;17.42;;;5.47;;
66523;SDS011;53350;52.210;5.160;2023-08-01T04:33:39;17.33;;;5.07;;
66523;SDS011;53350;52.210;5.160;2023-08-01T04:36:05;20.02;;;4.97;;
66523;SDS011;53350;52.210;5.160;2023-08-01T04:38:32;18.23;;;5.55;;
66523;SDS011;53350;52.210;5.160;2023-08-01T04:40:58;17.80;;;5.38;;
66523;SDS011;53350;52.210;5.160;2023-08-01T04:43:25;18.65;;;5.00;;
66523;SDS011;53350;52.210;5.160;2023-08-01T04:45:52;21.80;;;5.05;;
66523;SDS011;53350;52.210;5.160;2023-08-01T04:48:19;17.17;;;5.45;;
66523;SDS011;53350;52.210;5.160;2023-08-01T04:50:45;19.98;;;5.05;;
66523;SDS011;53350;52.210;5.160;2023-08-01T04:53:12;15.73;;;4.35;;
66523;SDS011;53350;52.210;5.160;2023-08-01T04:55:38;14.50;;;4.90;;
66523;SDS011;53350;52.210;5.160;2023-08-01T04:58:05;21.10;;;5.23;;
66523;SDS011;53350;52.210;5.160;2023-08-01T05:00:32;18.88;;;4.78;;
66523;SDS011;53350;52.210;5.160;2023-08-01T05:02:59;19.48;;;4.85;;
66523;SDS011;53350;52.210;5.160;2023-08-01T05:05:26;21.77;;;5.50;;
66523;SDS011;53350;52.210;5.160;2023-08-01T05:07:52;18.05;;;4.95;;
66523;SDS011;53350;52.210;5.160;2023-08-01T05:10:18;15.57;;;5.03;;
66523;SDS011;53350;52.210;5.160;2023-08-01T05:12:45;17.45;;;4.80;;
66523;SDS011;53350;52.210;5.160;2023-08-01T05:15:11;15.82;;;4.82;;
66523;SDS011;53350;52.210;5.160;2023-08-01T05:17:37;18.58;;;4.10;;
66523;SDS011;53350;52.210;5.160;2023-08-01T05:20:06;15.75;;;4.03;;
66523;SDS011;53350;52.210;5.160;2023-08-01T05:22:32;13.52;;;3.70;;
66523;SDS011;53350;52.210;5.160;2023-08-01T05:24:59;15.32;;;4.25;;
66523;SDS011;53350;52.210;5.160;2023-08-01T05:27:26;15.32;;;3.75;;
66523;SDS011;53350;52.210;5.160;2023-08-01T05:29:53;16.60;;;4.10;;
66523;SDS011;53350;52.210;5.160;2023-08-01T05:32:19;14.95;;;3.90;;
66523;SDS011;53350;52.210;5.160;2023-08-01T05:34:45;17.40;;;4.70;;
66523;SDS011;53350;52.210;5.160;2023-08-01T05:37:13;16.05;;;4.18;;
66523;SDS011;53350;52.210;5.160;2023-08-01T05:39:39;12.63;;;3.78;;
66523;SDS011;53350;52.210;5.160;2023-08-01T05:42:06;14.52;;;3.80;;
66523;SDS011;53350;52.210;5.160;2023-08-01T05:44:33;11.90;;;3.75;;
66523;SDS011;53350;52.210;5.160;2023-08-01T05:47:00;16.05;;;3.80;;
66523;SDS011;53350;52.210;5.160;2023-08-01T05:49:26;13.85;;;3.60;;
66523;SDS011;53350;52.210;5.160;2023-08-01T05:51:53;13.05;;;3.33;;
66523;SDS011;53350;52.210;5.160;2023-08-01T05:54:21;14.25;;;3.95;;
66523;SDS011;53350;52.210;5.160;2023-08-01T05:56:47;12.05;;;3.58;;
66523;SDS011;53350;52.210;5.160;2023-08-01T05:59:13;12.38;;;3.10;;
66523;SDS011;53350;52.210;5.160;2023-08-01T06:01:40;12.05;;;3.25;;
66523;SDS011;53350;52.210;5.160;2023-08-01T06:04:06;16.33;;;3.55;;
66523;SDS011;53350;52.210;5.160;2023-08-01T06:06:33;16.77;;;3.75;;
66523;SDS011;53350;52.210;5.160;2023-08-01T06:08:59;14.75;;;3.25;;
66523;SDS011;53350;52.210;5.160;2023-08-01T06:11:27;12.40;;;3.60;;
66523;SDS011;53350;52.210;5.160;2023-08-01T06:13:53;18.30;;;3.78;;
66523;SDS011;53350;52.210;5.160;2023-08-01T06:16:19;14.07;;;3.97;;
66523;SDS011;53350;52.210;5.160;2023-08-01T06:18:46;10.75;;;2.90;;
66523;SDS011;53350;52.210;5.160;2023-08-01T06:21:12;13.82;;;3.63;;
66523;SDS011;53350;52.210;5.160;2023-08-01T06:23:38;9.02;;;2.63;;
66523;SDS011;53350;52.210;5.160;2023-08-01T06:26:04;13.18;;;3.15;;
66523;SDS011;53350;52.210;5.160;2023-08-01T06:28:32;13.25;;;3.42;;
66523;SDS011;53350;52.210;5.160;2023-08-01T06:31:00;11.73;;;3.40;;
66523;SDS011;53350;52.210;5.160;2023-08-01T06:33:28;13.70;;;3.10;;
66523;SDS011;53350;52.210;5.160;2023-08-01T06:35:54;14.15;;;3.03;;
66523;SDS011;53350;52.210;5.160;2023-08-01T06:38:20;9.93;;;2.67;;
66523;SDS011;53350;52.210;5.160;2023-08-01T06:40:46;9.95;;;2.90;;
66523;SDS011;53350;52.210;5.160;2023-08-01T06:43:13;7.43;;;2.40;;
66523;SDS011;53350;52.210;5.160;2023-08-01T06:45:41;10.65;;;2.42;;
66523;SDS011;53350;52.210;5.160;2023-08-01T06:48:07;9.93;;;2.95;;
66523;SDS011;53350;52.210;5.160;2023-08-01T06:50:33;12.05;;;2.42;;
66523;SDS011;53350;52.210;5.160;2023-08-01T06:53:00;9.00;;;2.38;;
66523;SDS011;53350;52.210;5.160;2023-08-01T06:55:27;10.05;;;2.38;;
66523;SDS011;53350;52.210;5.160;2023-08-01T06:57:53;11.00;;;2.63;;
66523;SDS011;53350;52.210;5.160;2023-08-01T07:00:20;13.05;;;2.55;;
66523;SDS011;53350;52.210;5.160;2023-08-01T07:02:48;13.55;;;2.58;;
66523;SDS011;53350;52.210;5.160;2023-08-01T07:05:15;13.57;;;2.58;;
66523;SDS011;53350;52.210;5.160;2023-08-01T07:07:41;10.80;;;2.47;;
66523;SDS011;53350;52.210;5.160;2023-08-01T07:10:08;6.10;;;2.33;;
66523;SDS011;53350;52.210;5.160;2023-08-01T07:12:34;8.95;;;2.55;;
66523;SDS011;53350;52.210;5.160;2023-08-01T07:15:01;9.85;;;2.50;;
66523;SDS011;53350;52.210;5.160;2023-08-01T07:17:27;7.65;;;1.90;;
66523;SDS011;53350;52.210;5.160;2023-08-01T07:19:55;8.13;;;2.70;;
66523;SDS011;53350;52.210;5.160;2023-08-01T07:22:21;9.73;;;2.63;;
66523;SDS011;53350;52.210;5.160;2023-08-01T07:24:47;12.57;;;2.65;;
66523;SDS011;53350;52.210;5.160;2023-08-01T07:27:18;10.55;;;3.15;;
66523;SDS011;53350;52.210;5.160;2023-08-01T07:29:44;12.32;;;2.55;;
66523;SDS011;53350;52.210;5.160;2023-08-01T07:32:10;15.77;;;3.47;;
66523;SDS011;53350;52.210;5.160;2023-08-01T07:34:37;14.80;;;3.42;;
66523;SDS011;53350;52.210;5.160;2023-08-01T07:37:05;12.80;;;2.88;;
66523;SDS011;53350;52.210;5.160;2023-08-01T07:39:31;8.07;;;2.28;;
66523;SDS011;53350;52.210;5.160;2023-08-01T07:41:59;13.75;;;3.10;;
66523;SDS011;53350;52.210;5.160;2023-08-01T07:44:25;11.75;;;2.88;;
66523;SDS011;53350;52.210;5.160;2023-08-01T07:46:51;14.90;;;3.83;;
66523;SDS011;53350;52.210;5.160;2023-08-01T07:49:18;13.48;;;4.38;;
66523;SDS011;53350;52.210;5.160;2023-08-01T07:51:46;14.00;;;3.20;;
66523;SDS011;53350;52.210;5.160;2023-08-01T07:54:14;10.35;;;2.72;;
66523;SDS011;53350;52.210;5.160;2023-08-01T07:56:40;7.28;;;2.00;;
66523;SDS011;53350;52.210;5.160;2023-08-01T07:59:08;9.65;;;2.72;;
66523;SDS011;53350;52.210;5.160;2023-08-01T08:01:35;8.02;;;1.77;;
66523;SDS011;53350;52.210;5.160;2023-08-01T08:04:01;7.45;;;1.92;;
66523;SDS011;53350;52.210;5.160;2023-08-01T08:06:27;8.90;;;2.10;;
66523;SDS011;53350;52.210;5.160;2023-08-01T08:08:54;8.82;;;2.55;;
66523;SDS011;53350;52.210;5.160;2023-08-01T08:11:21;8.13;;;2.75;;
66523;SDS011;53350;52.210;5.160;2023-08-01T08:13:48;8.30;;;2.25;;
66523;SDS011;53350;52.210;5.160;2023-08-01T08:16:14;10.82;;;2.92;;
66523;SDS011;53350;52.210;5.160;2023-08-01T08:18:41;10.88;;;2.90;;
66523;SDS011;53350;52.210;5.160;2023-08-01T08:21:07;12.38;;;2.53;;
66523;SDS011;53350;52.210;5.160;2023-08-01T08:23:33;9.70;;;2.30;;
66523;SDS011;53350;52.210;5.160;2023-08-01T08:26:00;7.28;;;2.08;;
66523;SDS011;53350;52.210;5.160;2023-08-01T08:28:31;10.35;;;2.80;;
66523;SDS011;53350;52.210;5.160;2023-08-01T08:30:57;8.15;;;2.10;;
66523;SDS011;53350;52.210;5.160;2023-08-01T08:33:24;11.57;;;1.85;;
66523;SDS011;53350;52.210;5.160;2023-08-01T08:35:50;8.18;;;2.30;;
66523;SDS011;53350;52.210;5.160;2023-08-01T08:38:17;6.97;;;2.20;;
66523;SDS011;53350;52.210;5.160;2023-08-01T08:40:48;5.97;;;1.77;;
66523;SDS011;53350;52.210;5.160;2023-08-01T08:43:18;12.07;;;2.17;;
66523;SDS011;53350;52.210;5.160;2023-08-01T08:45:46;6.53;;;1.73;;
66523;SDS011;53350;52.210;5.160;2023-08-01T08:48:16;3.80;;;1.58;;
66523;SDS011;53350;52.210;5.160;2023-08-01T08:50:43;7.35;;;1.95;;
66523;SDS011;53350;52.210;5.160;2023-08-01T08:53:11;9.60;;;2.45;;
66523;SDS011;53350;52.210;5.160;2023-08-01T08:55:38;8.40;;;2.65;;
66523;SDS011;53350;52.210;5.160;2023-08-01T08:58:05;6.70;;;1.75;;
66523;SDS011;53350;52.210;5.160;2023-08-01T09:00:32;5.97;;;1.98;;
66523;SDS011;53350;52.210;5.160;2023-08-01T09:02:59;8.85;;;2.00;;
66523;SDS011;53350;52.210;5.160;2023-08-01T09:05:26;7.53;;;1.52;;
66523;SDS011;53350;52.210;5.160;2023-08-01T09:07:55;11.38;;;2.38;;
66523;SDS011;53350;52.210;5.160;2023-08-01T09:10:22;6.28;;;1.92;;
66523;SDS011;53350;52.210;5.160;2023-08-01T09:12:49;5.05;;;1.73;;
66523;SDS011;53350;52.210;5.160;2023-08-01T09:15:15;8.77;;;2.20;;
66523;SDS011;53350;52.210;5.160;2023-08-01T09:17:48;5.72;;;1.80;;
66523;SDS011;53350;52.210;5.160;2023-08-01T09:20:16;7.10;;;1.80;;
66523;SDS011;53350;52.210;5.160;2023-08-01T09:22:43;10.90;;;2.13;;
66523;SDS011;53350;52.210;5.160;2023-08-01T09:25:09;7.93;;;2.20;;
66523;SDS011;53350;52.210;5.160;2023-08-01T09:27:36;6.00;;;1.65;;
66523;SDS011;53350;52.210;5.160;2023-08-01T09:30:07;8.70;;;2.00;;
66523;SDS011;53350;52.210;5.160;2023-08-01T09:32:33;8.85;;;2.42;;
66523;SDS011;53350;52.210;5.160;2023-08-01T09:35:00;6.45;;;1.90;;
66523;SDS011;53350;52.210;5.160;2023-08-01T09:37:27;10.15;;;2.40;;
66523;SDS011;53350;52.210;5.160;2023-08-01T09:40:03;9.73;;;1.90;;
66523;SDS011;53350;52.210;5.160;2023-08-01T09:42:36;5.95;;;1.92;;
66523;SDS011;53350;52.210;5.160;2023-08-01T09:45:05;12.05;;;2.03;;
66523;SDS011;53350;52.210;5.160;2023-08-01T09:47:35;8.48;;;1.85;;
66523;SDS011;53350;52.210;5.160;2023-08-01T09:50:02;7.43;;;1.83;;
66523;SDS011;53350;52.210;5.160;2023-08-01T09:52:30;10.85;;;2.55;;
66523;SDS011;53350;52.210;5.160;2023-08-01T09:54:56;9.48;;;2.47;;
66523;SDS011;53350;52.210;5.160;2023-08-01T09:57:22;8.95;;;2.33;;
66523;SDS011;53350;52.210;5.160;2023-08-01T09:59:52;19.80;;;2.47;;
66523;SDS011;53350;52.210;5.160;2023-08-01T10:02:19;11.10;;;2.35;;
66523;SDS011;53350;52.210;5.160;2023-08-01T10:04:46;9.48;;;2.00;;
66523;SDS011;53350;52.210;5.160;2023-08-01T10:07:14;10.85;;;2.47;;
66523;SDS011;53350;52.210;5.160;2023-08-01T10:09:42;8.30;;;2.15;;
66523;SDS011;53350;52.210;5.160;2023-08-01T10:12:09;8.93;;;2.50;;
66523;SDS011;53350;52.210;5.160;2023-08-01T10:14:35;9.68;;;2.60;;
66523;SDS011;53350;52.210;5.160;2023-08-01T10:17:02;10.20;;;2.17;;
66523;SDS011;53350;52.210;5.160;2023-08-01T10:19:29;4.82;;;1.60;;
66523;SDS011;53350;52.210;5.160;2023-08-01T10:21:56;8.45;;;2.15;;
66523;SDS011;53350;52.210;5.160;2023-08-01T10:24:23;6.55;;;1.75;;
66523;SDS011;53350;52.210;5.160;2023-08-01T10:26:54;11.13;;;1.73;;
66523;SDS011;53350;52.210;5.160;2023-08-01T10:29:21;8.05;;;2.05;;
66523;SDS011;53350;52.210;5.160;2023-08-01T10:31:50;8.25;;;2.00;;
66523;SDS011;53350;52.210;5.160;2023-08-01T10:34:17;8.32;;;2.15;;
66523;SDS011;53350;52.210;5.160;2023-08-01T10:36:52;7.45;;;1.80;;
66523;SDS011;53350;52.210;5.160;2023-08-01T10:39:20;7.80;;;1.70;;
66523;SDS011;53350;52.210;5.160;2023-08-01T10:41:47;7.13;;;1.88;;
66523;SDS011;53350;52.210;5.160;2023-08-01T10:44:23;4.53;;;1.60;;
66523;SDS011;53350;52.210;5.160;2023-08-01T10:46:50;10.00;;;1.88;;
66523;SDS011;53350;52.210;5.160;2023-08-01T10:49:16;9.25;;;2.15;;
66523;SDS011;53350;52.210;5.160;2023-08-01T10:51:43;8.98;;;2.15;;
66523;SDS011;53350;52.210;5.160;2023-08-01T10:54:19;9.35;;;2.28;;
66523;SDS011;53350;52.210;5.160;2023-08-01T10:56:47;9.43;;;2.60;;
66523;SDS011;53350;52.210;5.160;2023-08-01T10:59:14;13.15;;;2.15;;
66523;SDS011;53350;52.210;5.160;2023-08-01T11:01:45;8.27;;;2.38;;
66523;SDS011;53350;52.210;5.160;2023-08-01T11:04:15;7.00;;;1.55;;
66523;SDS011;53350;52.210;5.160;2023-08-01T11:06:45;6.28;;;1.67;;
66523;SDS011;53350;52.210;5.160;2023-08-01T11:09:15;12.75;;;2.08;;
66523;SDS011;53350;52.210;5.160;2023-08-01T11:11:41;8.57;;;1.88;;
66523;SDS011;53350;52.210;5.160;2023-08-01T11:14:08;8.23;;;1.70;;
66523;SDS011;53350;52.210;5.160;2023-08-01T11:16:36;8.55;;;1.77;;
66523;SDS011;53350;52.210;5.160;2023-08-01T11:19:04;3.65;;;1.50;;
66523;SDS011;53350;52.210;5.160;2023-08-01T11:21:30;7.60;;;2.47;;
66523;SDS011;53350;52.210;5.160;2023-08-01T11:24:00;7.70;;;1.92;;
66523;SDS011;53350;52.210;5.160;2023-08-01T11:26:31;6.63;;;1.67;;
66523;SDS011;53350;52.210;5.160;2023-08-01T11:29:00;8.43;;;1.80;;
66523;SDS011;53350;52.210;5.160;2023-08-01T11:31:29;8.07;;;1.75;;
66523;SDS011;53350;52.210;5.160;2023-08-01T11:33:56;6.55;;;1.77;;
66523;SDS011;53350;52.210;5.160;2023-08-01T11:36:25;5.75;;;1.33;;
66523;SDS011;53350;52.210;5.160;2023-08-01T11:38:52;11.93;;;2.30;;
66523;SDS011;53350;52.210;5.160;2023-08-01T11:41:19;9.00;;;1.73;;
66523;SDS011;53350;52.210;5.160;2023-08-01T11:43:45;4.47;;;1.55;;
66523;SDS011;53350;52.210;5.160;2023-08-01T11:46:12;6.95;;;1.52;;
66523;SDS011;53350;52.210;5.160;2023-08-01T11:48:38;8.70;;;2.15;;
66523;SDS011;53350;52.210;5.160;2023-08-01T11:51:05;6.30;;;1.60;;
66523;SDS011;53350;52.210;5.160;2023-08-01T11:53:32;12.13;;;2.22;;
66523;SDS011;53350;52.210;5.160;2023-08-01T11:56:03;6.90;;;1.55;;
66523;SDS011;53350;52.210;5.160;2023-08-01T11:58:30;8.57;;;2.22;;
66523;SDS011;53350;52.210;5.160;2023-08-01T12:01:03;6.13;;;1.67;;
66523;SDS011;53350;52.210;5.160;2023-08-01T12:03:30;7.78;;;2.25;;
66523;SDS011;53350;52.210;5.160;2023-08-01T12:08:24;7.53;;;1.85;;
66523;SDS011;53350;52.210;5.160;2023-08-01T12:10:59;6.60;;;1.63;;
66523;SDS011;53350;52.210;5.160;2023-08-01T12:15:52;4.28;;;1.02;;
66523;SDS011;53350;52.210;5.160;2023-08-01T12:18:19;4.70;;;1.40;;
66523;SDS011;53350;52.210;5.160;2023-08-01T12:20:46;9.43;;;2.40;;
66523;SDS011;53350;52.210;5.160;2023-08-01T12:23:12;14.13;;;2.30;;
66523;SDS011;53350;52.210;5.160;2023-08-01T12:25:38;7.95;;;1.95;;
66523;SDS011;53350;52.210;5.160;2023-08-01T12:28:05;7.57;;;2.25;;
66523;SDS011;53350;52.210;5.160;2023-08-01T12:30:31;7.25;;;1.67;;
66523;SDS011;53350;52.210;5.160;2023-08-01T12:32:58;6.85;;;1.67;;
66523;SDS011;53350;52.210;5.160;2023-08-01T12:35:25;4.60;;;1.50;;
66523;SDS011;53350;52.210;5.160;2023-08-01T12:37:52;7.18;;;1.63;;
66523;SDS011;53350;52.210;5.160;2023-08-01T12:40:18;7.70;;;1.80;;
66523;SDS011;53350;52.210;5.160;2023-08-01T12:42:46;6.38;;;1.70;;
66523;SDS011;53350;52.210;5.160;2023-08-01T12:45:13;7.38;;;1.50;;
66523;SDS011;53350;52.210;5.160;2023-08-01T12:47:40;6.53;;;1.75;;
66523;SDS011;53350;52.210;5.160;2023-08-01T12:50:07;4.38;;;1.23;;
66523;SDS011;53350;52.210;5.160;2023-08-01T12:52:33;11.93;;;1.85;;
66523;SDS011;53350;52.210;5.160;2023-08-01T12:55:00;8.20;;;1.83;;
66523;SDS011;53350;52.210;5.160;2023-08-01T12:57:26;4.60;;;1.42;;
66523;SDS011;53350;52.210;5.160;2023-08-01T12:59:52;8.93;;;1.88;;
66523;SDS011;53350;52.210;5.160;2023-08-01T13:02:20;8.50;;;1.65;;
66523;SDS011;53350;52.210;5.160;2023-08-01T13:04:46;6.00;;;1.42;;
66523;SDS011;53350;52.210;5.160;2023-08-01T13:07:12;8.32;;;1.70;;
66523;SDS011;53350;52.210;5.160;2023-08-01T13:09:39;8.70;;;1.80;;
66523;SDS011;53350;52.210;5.160;2023-08-01T13:12:06;9.45;;;2.20;;
66523;SDS011;53350;52.210;5.160;2023-08-01T13:14:32;10.57;;;2.47;;
66523;SDS011;53350;52.210;5.160;2023-08-01T13:16:59;8.43;;;2.38;;
66523;SDS011;53350;52.210;5.160;2023-08-01T13:19:29;9.02;;;2.13;;
66523;SDS011;53350;52.210;5.160;2023-08-01T13:21:55;6.35;;;2.08;;
66523;SDS011;53350;52.210;5.160;2023-08-01T13:24:22;7.95;;;2.10;;
66523;SDS011;53350;52.210;5.160;2023-08-01T13:26:48;10.35;;;2.20;;
66523;SDS011;53350;52.210;5.160;2023-08-01T13:29:14;10.88;;;2.38;;
66523;SDS011;53350;52.210;5.160;2023-08-01T13:31:40;6.32;;;1.73;;
66523;SDS011;53350;52.210;5.160;2023-08-01T13:34:07;11.98;;;2.70;;
66523;SDS011;53350;52.210;5.160;2023-08-01T13:36:35;8.27;;;2.00;;
66523;SDS011;53350;52.210;5.160;2023-08-01T13:39:01;8.70;;;2.00;;
66523;SDS011;53350;52.210;5.160;2023-08-01T13:41:27;4.28;;;1.23;;
66523;SDS011;53350;52.210;5.160;2023-08-01T13:43:54;9.90;;;2.00;;
66523;SDS011;53350;52.210;5.160;2023-08-01T13:46:20;7.88;;;2.22;;
66523;SDS011;53350;52.210;5.160;2023-08-01T13:48:46;7.05;;;1.75;;
66523;SDS011;53350;52.210;5.160;2023-08-01T13:51:13;5.70;;;1.63;;
66523;SDS011;53350;52.210;5.160;2023-08-01T13:53:41;6.55;;;1.95;;
66523;SDS011;53350;52.210;5.160;2023-08-01T13:56:07;11.43;;;2.58;;
66523;SDS011;53350;52.210;5.160;2023-08-01T13:58:33;10.80;;;2.63;;
66523;SDS011;53350;52.210;5.160;2023-08-01T14:01:01;8.13;;;2.17;;
66523;SDS011;53350;52.210;5.160;2023-08-01T14:03:28;11.07;;;2.15;;
66523;SDS011;53350;52.210;5.160;2023-08-01T14:05:54;15.30;;;2.42;;
66523;SDS011;53350;52.210;5.160;2023-08-01T14:08:21;11.27;;;3.00;;
66523;SDS011;53350;52.210;5.160;2023-08-01T14:10:49;10.15;;;1.67;;
66523;SDS011;53350;52.210;5.160;2023-08-01T14:13:15;13.63;;;2.30;;
66523;SDS011;53350;52.210;5.160;2023-08-01T14:15:42;10.77;;;2.30;;
66523;SDS011;53350;52.210;5.160;2023-08-01T14:18:08;8.38;;;1.73;;
66523;SDS011;53350;52.210;5.160;2023-08-01T14:20:34;12.85;;;2.30;;
66523;SDS011;53350;52.210;5.160;2023-08-01T14:23:01;12.68;;;2.03;;
66523;SDS011;53350;52.210;5.160;2023-08-01T14:25:28;10.70;;;2.38;;
66523;SDS011;53350;52.210;5.160;2023-08-01T14:27:55;9.65;;;2.10;;
66523;SDS011;53350;52.210;5.160;2023-08-01T14:30:21;10.77;;;2.70;;
66523;SDS011;53350;52.210;5.160;2023-08-01T14:32:49;10.25;;;2.03;;
66523;SDS011;53350;52.210;5.160;2023-08-01T14:35:15;7.63;;;2.13;;
66523;SDS011;53350;52.210;5.160;2023-08-01T14:37:41;11.65;;;2.28;;
66523;SDS011;53350;52.210;5.160;2023-08-01T14:40:13;14.30;;;6.95;;
66523;SDS011;53350;52.210;5.160;2023-08-01T14:42:39;9.18;;;2.92;;
66523;SDS011;53350;52.210;5.160;2023-08-01T14:45:07;2.78;;;1.08;;